Time;durP1;ratioP1;P1;durP2;ratioP2;P2;SDS_P1;SDS_P2;PMS_P1;PMS_P2;Temp;Humidity;BMP_temperature;BMP_pressure;BME280_temperature;BME280_humidity;BME280_pressure;Samples;Min_cycle;Max_cycle;Signal;HPM_P1;HPM_P2
2022/07/05 00:02:16;;;;;;;2.67;1.80;;;;;;;;;;4983382;28;20156;-69
2022/07/05 00:04:42;;;;;;;3.15;1.80;;;;;;;;;;4984850;28;20042;-69
2022/07/05 00:07:17;;;;;;;3.40;1.73;;;;;;;;;;4983729;28;20022;-69
2022/07/05 00:09:44;;;;;;;4.70;1.88;;;;;;;;;;4984264;28;20046;-69
2022/07/05 00:12:09;;;;;;;4.10;1.73;;;;;;;;;;4984456;28;20050;-69
2022/07/05 00:14:36;;;;;;;4.15;1.98;;;;;;;;;;4984021;28;20046;-69
2022/07/05 00:17:03;;;;;;;2.20;1.70;;;;;;;;;;4984541;28;20060;-69
2022/07/05 00:19:28;;;;;;;3.95;2.00;;;;;;;;;;4983532;28;20510;-69
2022/07/05 00:21:54;;;;;;;4.00;1.80;;;;;;;;;;4984254;28;20034;-67
2022/07/05 00:24:19;;;;;;;2.60;1.77;;;;;;;;;;4984035;28;20041;-68
2022/07/05 00:26:45;;;;;;;2.35;1.70;;;;;;;;;;4984178;28;20080;-68
2022/07/05 00:29:10;;;;;;;2.95;1.60;;;;;;;;;;4981986;28;20045;-67
2022/07/05 00:31:36;;;;;;;3.35;1.90;;;;;;;;;;4984717;28;20407;-67
2022/07/05 00:34:01;;;;;;;4.65;1.50;;;;;;;;;;4982979;28;20065;-67
2022/07/05 00:36:27;;;;;;;5.15;1.88;;;;;;;;;;4982526;28;20053;-67
2022/07/05 00:38:52;;;;;;;5.78;2.08;;;;;;;;;;4998693;28;20038;-67
2022/07/05 00:41:18;;;;;;;4.60;1.80;;;;;;;;;;4983212;28;20056;-68
2022/07/05 00:43:55;;;;;;;6.55;2.00;;;;;;;;;;4983769;28;21083;-67
2022/07/05 00:46:20;;;;;;;7.50;1.98;;;;;;;;;;4998690;28;20910;-67
2022/07/05 00:48:46;;;;;;;3.08;2.15;;;;;;;;;;4983885;28;20034;-67
2022/07/05 00:51:11;;;;;;;4.90;2.10;;;;;;;;;;4983096;28;20042;-68
2022/07/05 00:53:37;;;;;;;4.82;1.90;;;;;;;;;;4982798;28;20081;-67
2022/07/05 00:56:04;;;;;;;3.55;1.90;;;;;;;;;;4983729;28;20034;-67
2022/07/05 00:58:32;;;;;;;5.30;2.40;;;;;;;;;;4983765;28;21149;-68
2022/07/05 01:00:58;;;;;;;5.05;2.10;;;;;;;;;;4982749;28;20045;-67
2022/07/05 01:03:24;;;;;;;3.95;2.67;;;;;;;;;;4983286;28;20049;-67
2022/07/05 01:05:49;;;;;;;4.63;2.47;;;;;;;;;;4982728;28;20035;-68
2022/07/05 01:08:15;;;;;;;5.10;2.30;;;;;;;;;;4982819;28;20054;-68
2022/07/05 01:10:41;;;;;;;5.43;2.28;;;;;;;;;;4982573;28;20853;-68
2022/07/05 01:13:08;;;;;;;7.55;2.40;;;;;;;;;;4982180;28;20034;-69
2022/07/05 01:15:34;;;;;;;9.48;2.45;;;;;;;;;;4976611;28;20793;-68
2022/07/05 01:17:59;;;;;;;3.20;2.20;;;;;;;;;;4982616;28;20678;-68
2022/07/05 01:20:25;;;;;;;5.82;2.53;;;;;;;;;;4982841;28;20065;-67
2022/07/05 01:22:52;;;;;;;2.55;2.35;;;;;;;;;;4982570;28;20034;-68
2022/07/05 01:25:18;;;;;;;5.53;2.78;;;;;;;;;;4982968;28;20070;-68
2022/07/05 01:27:45;;;;;;;5.57;2.50;;;;;;;;;;4983326;28;20121;-69
2022/07/05 01:30:11;;;;;;;4.70;2.60;;;;;;;;;;4982666;28;20036;-68
2022/07/05 01:32:37;;;;;;;4.75;2.30;;;;;;;;;;4983082;28;20514;-68
2022/07/05 01:35:03;;;;;;;5.20;2.92;;;;;;;;;;4981948;28;20426;-69
2022/07/05 01:37:29;;;;;;;4.88;2.60;;;;;;;;;;4980934;28;20038;-69
2022/07/05 01:39:55;;;;;;;4.63;2.60;;;;;;;;;;4982968;28;20050;-67
2022/07/05 01:42:21;;;;;;;3.05;2.70;;;;;;;;;;4983282;28;20041;-68
2022/07/05 01:44:46;;;;;;;2.75;2.45;;;;;;;;;;4981271;28;20038;-68
2022/07/05 01:47:13;;;;;;;5.63;3.03;;;;;;;;;;4978025;28;20126;-68
2022/07/05 01:49:43;;;;;;;3.42;2.65;;;;;;;;;;4982478;28;20109;-69
2022/07/05 01:52:11;;;;;;;4.25;2.70;;;;;;;;;;4983242;28;20038;-68
2022/07/05 01:54:37;;;;;;;5.85;2.45;;;;;;;;;;4981804;28;20530;-69
2022/07/05 01:57:06;;;;;;;6.22;2.80;;;;;;;;;;4983861;28;20046;-68
2022/07/05 01:59:33;;;;;;;7.47;2.75;;;;;;;;;;4978053;28;20044;-69
2022/07/05 02:01:59;;;;;;;3.05;2.75;;;;;;;;;;4982708;28;20053;-69
2022/07/05 02:04:26;;;;;;;5.80;2.70;;;;;;;;;;4982619;28;20042;-69
2022/07/05 02:06:51;;;;;;;9.80;2.67;;;;;;;;;;4982276;28;20468;-70
2022/07/05 02:09:17;;;;;;;6.40;2.50;;;;;;;;;;4980263;28;20126;-69
2022/07/05 02:11:42;;;;;;;5.30;2.97;;;;;;;;;;4982174;28;20042;-69
2022/07/05 02:14:08;;;;;;;5.65;2.90;;;;;;;;;;4980720;28;20038;-69
2022/07/05 02:16:37;;;;;;;11.07;2.67;;;;;;;;;;4980533;28;20066;-69
2022/07/05 02:19:03;;;;;;;9.90;2.80;;;;;;;;;;4980619;28;20452;-69
2022/07/05 02:21:32;;;;;;;3.65;2.38;;;;;;;;;;4980393;28;20089;-69
2022/07/05 02:24:00;;;;;;;4.88;2.60;;;;;;;;;;4980766;28;20034;-69
2022/07/05 02:26:30;;;;;;;2.42;2.10;;;;;;;;;;4980575;28;20034;-69
2022/07/05 02:28:56;;;;;;;4.68;2.08;;;;;;;;;;4980791;28;20030;-69
2022/07/05 02:31:22;;;;;;;2.78;2.38;;;;;;;;;;4981139;28;20109;-69
2022/07/05 02:33:52;;;;;;;7.10;2.33;;;;;;;;;;4979716;28;20507;-69
2022/07/05 02:36:19;;;;;;;4.70;2.33;;;;;;;;;;4980689;28;20046;-69
2022/07/05 02:38:44;;;;;;;3.40;2.42;;;;;;;;;;4980319;28;20458;-69
2022/07/05 02:41:11;;;;;;;3.00;2.35;;;;;;;;;;4979860;28;20042;-69
2022/07/05 02:43:40;;;;;;;2.22;2.00;;;;;;;;;;4996541;28;20042;-69
2022/07/05 02:46:07;;;;;;;5.15;2.38;;;;;;;;;;4964627;28;20041;-68
2022/07/05 02:48:34;;;;;;;7.97;2.50;;;;;;;;;;4981452;28;20117;-69
2022/07/05 02:51:00;;;;;;;8.13;2.30;;;;;;;;;;4982416;28;20038;-69
2022/07/05 02:53:25;;;;;;;6.57;2.10;;;;;;;;;;4979260;28;20034;-68
2022/07/05 02:55:51;;;;;;;3.03;2.13;;;;;;;;;;4980642;28;20866;-68
2022/07/05 02:58:17;;;;;;;8.20;2.45;;;;;;;;;;4980624;28;20512;-68
2022/07/05 03:00:45;;;;;;;3.28;2.40;;;;;;;;;;4980924;28;20077;-68
2022/07/05 03:03:11;;;;;;;14.57;2.42;;;;;;;;;;4979576;28;20042;-68
2022/07/05 03:05:37;;;;;;;5.15;1.83;;;;;;;;;;4979969;28;20034;-69
2022/07/05 03:08:04;;;;;;;3.92;2.38;;;;;;;;;;4980071;28;20121;-69
2022/07/05 03:10:33;;;;;;;5.15;2.17;;;;;;;;;;4980012;28;20034;-69
2022/07/05 03:13:01;;;;;;;4.35;2.60;;;;;;;;;;4980097;28;20058;-69
2022/07/05 03:15:27;;;;;;;6.03;2.00;;;;;;;;;;4980602;28;20034;-69
2022/07/05 03:17:53;;;;;;;4.47;2.00;;;;;;;;;;4980061;28;20070;-69
2022/07/05 03:20:20;;;;;;;5.85;2.28;;;;;;;;;;4980307;28;20046;-69
2022/07/05 03:22:46;;;;;;;2.20;2.00;;;;;;;;;;4981366;28;20451;-69
2022/07/05 03:25:12;;;;;;;6.35;2.20;;;;;;;;;;4979146;28;20575;-69
2022/07/05 03:27:38;;;;;;;6.30;2.30;;;;;;;;;;4980247;28;20038;-68
2022/07/05 03:30:04;;;;;;;5.82;2.30;;;;;;;;;;4980339;28;20590;-68
2022/07/05 03:32:32;;;;;;;8.63;2.20;;;;;;;;;;4964900;28;20700;-67
2022/07/05 03:34:58;;;;;;;5.97;2.35;;;;;;;;;;4996672;28;20085;-70
2022/07/05 03:37:24;;;;;;;4.35;2.00;;;;;;;;;;4979511;28;20034;-67
2022/07/05 03:39:50;;;;;;;2.88;2.42;;;;;;;;;;4980360;28;20067;-68
2022/07/05 03:42:16;;;;;;;4.05;1.95;;;;;;;;;;4980254;28;20038;-68
2022/07/05 03:44:42;;;;;;;3.72;2.17;;;;;;;;;;4980430;28;20068;-68
2022/07/05 03:47:08;;;;;;;4.60;2.10;;;;;;;;;;4977676;28;20085;-67
2022/07/05 03:49:34;;;;;;;6.40;2.08;;;;;;;;;;4980019;28;20038;-68
2022/07/05 03:51:59;;;;;;;4.53;2.15;;;;;;;;;;4980273;28;20034;-68
2022/07/05 03:54:25;;;;;;;4.85;2.00;;;;;;;;;;4980299;28;20038;-68
2022/07/05 03:56:51;;;;;;;2.72;1.90;;;;;;;;;;4979840;28;20102;-68
2022/07/05 03:59:16;;;;;;;4.50;2.10;;;;;;;;;;4978313;28;20487;-67
2022/07/05 04:01:42;;;;;;;3.78;1.90;;;;;;;;;;4979066;28;20052;-69
2022/07/05 04:04:09;;;;;;;2.15;1.98;;;;;;;;;;4980841;28;20044;-68
2022/07/05 04:06:34;;;;;;;2.60;2.40;;;;;;;;;;4983082;28;20042;-67
2022/07/05 04:09:02;;;;;;;2.40;2.17;;;;;;;;;;4983011;28;20030;-67
2022/07/05 04:11:27;;;;;;;5.07;2.17;;;;;;;;;;4983947;28;20043;-68
2022/07/05 04:13:53;;;;;;;3.97;2.00;;;;;;;;;;4982844;28;20112;-68
2022/07/05 04:16:19;;;;;;;4.80;1.70;;;;;;;;;;4983132;28;20487;-68
2022/07/05 04:18:46;;;;;;;4.50;2.50;;;;;;;;;;4982836;28;20029;-68
2022/07/05 04:21:11;;;;;;;3.15;2.17;;;;;;;;;;4983328;28;20038;-68
2022/07/05 04:23:37;;;;;;;4.20;2.15;;;;;;;;;;4982960;28;20038;-67
2022/07/05 04:26:03;;;;;;;2.40;2.00;;;;;;;;;;4982699;28;20414;-68
2022/07/05 04:28:33;;;;;;;1.92;1.80;;;;;;;;;;4982544;28;21241;-68
2022/07/05 04:31:02;;;;;;;4.10;2.40;;;;;;;;;;4982962;28;20189;-69
2022/07/05 04:33:31;;;;;;;2.83;2.00;;;;;;;;;;4980879;28;20355;-67
2022/07/05 04:35:57;;;;;;;3.75;1.63;;;;;;;;;;4981809;28;20517;-67
2022/07/05 04:38:23;;;;;;;2.28;1.88;;;;;;;;;;4982103;28;20046;-68
2022/07/05 04:40:49;;;;;;;3.83;1.80;;;;;;;;;;4982551;28;20043;-68
2022/07/05 04:43:15;;;;;;;3.85;1.80;;;;;;;;;;4981726;28;20046;-68
2022/07/05 04:45:40;;;;;;;2.13;1.70;;;;;;;;;;4981120;28;20134;-68
2022/07/05 04:48:06;;;;;;;3.58;1.40;;;;;;;;;;4982060;28;20280;-68
2022/07/05 04:50:34;;;;;;;2.22;1.20;;;;;;;;;;4981746;28;20054;-67
2022/07/05 04:53:00;;;;;;;1.55;1.30;;;;;;;;;;4982060;28;20030;-67
2022/07/05 04:55:25;;;;;;;1.50;1.10;;;;;;;;;;4982745;28;20037;-68
2022/07/05 04:57:51;;;;;;;1.67;1.40;;;;;;;;;;4984146;28;20038;-70
2022/07/05 05:00:16;;;;;;;4.68;1.77;;;;;;;;;;4983024;28;20030;-69
2022/07/05 05:02:41;;;;;;;2.25;1.30;;;;;;;;;;4983290;28;20117;-69
2022/07/05 05:05:08;;;;;;;4.15;1.20;;;;;;;;;;4981860;28;20400;-70
2022/07/05 05:07:34;;;;;;;5.15;1.05;;;;;;;;;;4981416;28;20442;-69
2022/07/05 05:10:00;;;;;;;4.28;1.00;;;;;;;;;;4978852;28;20351;-69
2022/07/05 05:12:26;;;;;;;5.00;1.00;;;;;;;;;;4983298;28;20545;-68
2022/07/05 05:14:51;;;;;;;3.13;0.98;;;;;;;;;;4982498;28;20030;-69
2022/07/05 05:17:17;;;;;;;2.67;0.90;;;;;;;;;;4981135;28;20065;-69
2022/07/05 05:19:42;;;;;;;1.40;1.00;;;;;;;;;;4981077;28;20554;-70
2022/07/05 05:22:08;;;;;;;2.42;0.70;;;;;;;;;;4981235;28;20487;-69
2022/07/05 05:24:34;;;;;;;3.83;0.95;;;;;;;;;;4981150;28;20044;-69
2022/07/05 05:27:00;;;;;;;1.35;0.75;;;;;;;;;;4980537;28;20471;-69
2022/07/05 05:29:26;;;;;;;3.90;0.60;;;;;;;;;;4981321;28;20141;-69
2022/07/05 05:31:51;;;;;;;3.10;0.82;;;;;;;;;;4981659;28;20117;-69
2022/07/05 05:34:17;;;;;;;1.50;0.68;;;;;;;;;;4983045;28;20034;-69
2022/07/05 05:36:42;;;;;;;2.33;0.68;;;;;;;;;;4982531;28;20045;-70
2022/07/05 05:39:08;;;;;;;1.75;0.60;;;;;;;;;;4981095;28;20077;-68
2022/07/05 05:41:33;;;;;;;1.45;0.75;;;;;;;;;;4983022;28;20057;-68
2022/07/05 05:43:59;;;;;;;1.58;0.90;;;;;;;;;;4983562;28;20038;-69
2022/07/05 05:46:24;;;;;;;2.63;0.75;;;;;;;;;;4982264;28;20080;-69
2022/07/05 05:48:49;;;;;;;2.42;0.80;;;;;;;;;;4980198;28;20138;-69
2022/07/05 05:51:15;;;;;;;1.20;0.65;;;;;;;;;;4982055;28;20034;-69
2022/07/05 05:53:40;;;;;;;1.73;0.60;;;;;;;;;;4981511;28;20495;-70
2022/07/05 05:56:06;;;;;;;1.65;0.65;;;;;;;;;;4982523;28;20531;-69
2022/07/05 05:58:31;;;;;;;1.33;0.80;;;;;;;;;;4982283;28;20074;-70
2022/07/05 06:00:57;;;;;;;1.45;0.80;;;;;;;;;;4981029;28;20069;-70
2022/07/05 06:03:27;;;;;;;1.48;0.60;;;;;;;;;;4982560;28;20996;-69
2022/07/05 06:05:53;;;;;;;0.70;0.70;;;;;;;;;;4981079;28;20509;-69
2022/07/05 06:08:18;;;;;;;2.10;0.70;;;;;;;;;;4982446;28;20484;-69
2022/07/05 06:10:44;;;;;;;1.52;0.80;;;;;;;;;;4981302;28;20045;-69
2022/07/05 06:13:12;;;;;;;4.72;0.65;;;;;;;;;;4982546;28;20053;-69
2022/07/05 06:15:39;;;;;;;2.63;0.88;;;;;;;;;;4982353;28;20038;-72
2022/07/05 06:18:06;;;;;;;1.10;0.73;;;;;;;;;;4982450;28;20050;-71
2022/07/05 06:20:33;;;;;;;0.70;0.70;;;;;;;;;;4982160;28;20042;-69
2022/07/05 06:23:00;;;;;;;1.67;0.80;;;;;;;;;;4981157;28;20042;-70
2022/07/05 06:25:26;;;;;;;3.45;0.77;;;;;;;;;;4982298;28;20026;-69
2022/07/05 06:27:54;;;;;;;3.45;0.75;;;;;;;;;;4981543;28;20049;-69
2022/07/05 06:30:21;;;;;;;1.98;0.90;;;;;;;;;;4982046;28;20088;-69
2022/07/05 06:32:48;;;;;;;1.20;0.85;;;;;;;;;;4981749;28;20042;-70
2022/07/05 06:35:14;;;;;;;1.80;0.90;;;;;;;;;;4981944;28;20099;-70
2022/07/05 06:37:53;;;;;;;6.50;1.02;;;;;;;;;;4981873;28;20038;-69
2022/07/05 06:40:21;;;;;;;6.00;1.20;;;;;;;;;;4980412;28;20042;-69
2022/07/05 06:42:47;;;;;;;2.40;1.00;;;;;;;;;;4982094;28;20042;-70
2022/07/05 06:45:14;;;;;;;2.22;1.30;;;;;;;;;;4980311;28;20065;-69
2022/07/05 06:47:40;;;;;;;4.53;1.48;;;;;;;;;;4981887;28;20077;-69
2022/07/05 06:50:06;;;;;;;1.50;1.30;;;;;;;;;;4981885;28;20040;-69
2022/07/05 06:52:32;;;;;;;4.25;1.25;;;;;;;;;;4981991;28;20038;-68
2022/07/05 06:54:59;;;;;;;3.85;1.20;;;;;;;;;;4981355;28;20495;-68
2022/07/05 06:57:25;;;;;;;3.70;1.55;;;;;;;;;;4981816;28;20097;-68
2022/07/05 06:59:50;;;;;;;2.72;1.48;;;;;;;;;;4981523;28;20450;-69
2022/07/05 07:02:16;;;;;;;2.53;1.20;;;;;;;;;;4981994;28;20046;-70
2022/07/05 07:04:42;;;;;;;1.98;1.60;;;;;;;;;;4982014;28;20042;-70
2022/07/05 07:09:17;;;;;;;2.92;1.48;;;;;;;;;;4981757;28;20030;-69
2022/07/05 07:10:01;;;;;;;2.15;1.55;;;;;;;;;;4981577;28;20065;-70
2022/07/05 07:12:27;;;;;;;2.67;1.45;;;;;;;;;;4982391;28;20121;-69
2022/07/05 07:14:52;;;;;;;1.50;1.40;;;;;;;;;;4981953;28;20161;-70
2022/07/05 07:17:18;;;;;;;3.28;1.85;;;;;;;;;;4981279;28;20038;-69
2022/07/05 07:19:43;;;;;;;4.53;1.60;;;;;;;;;;4981688;28;20066;-70
2022/07/05 07:22:09;;;;;;;5.60;1.90;;;;;;;;;;4981979;28;20109;-70
2022/07/05 07:24:34;;;;;;;3.53;2.00;;;;;;;;;;4981979;28;20402;-69
2022/07/05 07:27:02;;;;;;;3.35;1.92;;;;;;;;;;4981706;28;20466;-69
2022/07/05 07:29:28;;;;;;;4.88;1.88;;;;;;;;;;4980729;28;20077;-69
2022/07/05 07:31:55;;;;;;;2.28;1.80;;;;;;;;;;4981729;28;20038;-69
2022/07/05 07:34:20;;;;;;;3.25;1.80;;;;;;;;;;4981431;28;20058;-70
2022/07/05 07:36:46;;;;;;;7.78;1.98;;;;;;;;;;4981653;28;20041;-69
2022/07/05 07:39:11;;;;;;;3.67;1.75;;;;;;;;;;4983605;28;20053;-70
2022/07/05 07:41:37;;;;;;;4.25;1.88;;;;;;;;;;4985349;28;20430;-69
2022/07/05 07:44:03;;;;;;;3.60;1.70;;;;;;;;;;4985773;28;20042;-70
2022/07/05 07:46:28;;;;;;;3.10;2.03;;;;;;;;;;4985219;28;20042;-70
2022/07/05 07:48:53;;;;;;;4.53;1.90;;;;;;;;;;4985014;28;20038;-70
2022/07/05 07:51:21;;;;;;;2.85;1.55;;;;;;;;;;4984382;28;20462;-69
2022/07/05 07:53:47;;;;;;;4.32;1.90;;;;;;;;;;4985112;28;20518;-70
2022/07/05 07:56:12;;;;;;;2.00;1.80;;;;;;;;;;4985018;28;20113;-69
2022/07/05 07:58:38;;;;;;;5.95;2.22;;;;;;;;;;4984804;28;20555;-70
2022/07/05 08:01:05;;;;;;;3.53;1.85;;;;;;;;;;4984187;28;20038;-70
2022/07/05 08:03:32;;;;;;;3.03;1.70;;;;;;;;;;4985734;28;20515;-69
2022/07/05 08:05:57;;;;;;;2.35;1.48;;;;;;;;;;4985654;28;20034;-70
2022/07/05 08:08:22;;;;;;;4.30;1.88;;;;;;;;;;4985804;28;20114;-70
2022/07/05 08:10:48;;;;;;;3.88;1.60;;;;;;;;;;4985667;28;20172;-71
2022/07/05 08:13:13;;;;;;;4.43;1.70;;;;;;;;;;4984508;28;20486;-70
2022/07/05 08:15:39;;;;;;;3.65;1.70;;;;;;;;;;4983469;28;20038;-70
2022/07/05 08:23:39;;;;;;;5.38;1.67;;;;;;;;;;4983370;28;20038;-70
2022/07/05 08:26:05;;;;;;;3.17;2.22;;;;;;;;;;4984460;28;20053;-69
2022/07/05 08:28:30;;;;;;;3.40;1.60;;;;;;;;;;4984712;28;20456;-70
2022/07/05 08:30:56;;;;;;;3.65;1.80;;;;;;;;;;4984022;28;20375;-70
2022/07/05 08:33:21;;;;;;;2.42;1.73;;;;;;;;;;4983691;28;20699;-69
2022/07/05 08:35:47;;;;;;;2.67;1.52;;;;;;;;;;4983839;28;20042;-70
2022/07/05 08:38:12;;;;;;;4.32;1.80;;;;;;;;;;4984325;28;20046;-70
2022/07/05 08:40:43;;;;;;;7.82;1.50;;;;;;;;;;4984058;28;21100;-70
2022/07/05 08:43:10;;;;;;;5.50;1.60;;;;;;;;;;4984183;28;20414;-70
2022/07/05 08:45:38;;;;;;;4.18;1.65;;;;;;;;;;4982996;28;20038;-70
2022/07/05 08:48:05;;;;;;;2.50;1.60;;;;;;;;;;4983909;28;20037;-70
2022/07/05 08:50:32;;;;;;;1.88;1.67;;;;;;;;;;4983011;28;20454;-71
2022/07/05 08:52:59;;;;;;;1.85;1.45;;;;;;;;;;4983834;28;20038;-71
2022/07/05 08:55:26;;;;;;;2.55;1.58;;;;;;;;;;4983012;28;20040;-71
2022/07/05 08:57:51;;;;;;;1.40;1.30;;;;;;;;;;4983642;28;20038;-71
2022/07/05 09:00:17;;;;;;;5.28;1.50;;;;;;;;;;4983636;28;20061;-71
2022/07/05 09:02:42;;;;;;;5.85;1.50;;;;;;;;;;4983737;28;20042;-69
2022/07/05 09:05:12;;;;;;;4.97;1.50;;;;;;;;;;4983562;28;20048;-70
2022/07/05 09:07:42;;;;;;;1.95;1.65;;;;;;;;;;4982890;28;20494;-69
2022/07/05 09:10:11;;;;;;;7.85;1.50;;;;;;;;;;4983279;28;20499;-69
2022/07/05 09:12:37;;;;;;;3.45;1.33;;;;;;;;;;4983558;28;20125;-69
2022/07/05 09:15:04;;;;;;;1.83;1.25;;;;;;;;;;4983287;28;20037;-69
2022/07/05 09:17:30;;;;;;;2.47;1.40;;;;;;;;;;4982140;28;20049;-70
2022/07/05 09:20:15;;;;;;;4.72;1.42;;;;;;;;;;4982801;28;20046;-70
2022/07/05 09:22:52;;;;;;;1.42;1.15;;;;;;;;;;4983528;28;20046;-69
2022/07/05 09:25:27;;;;;;;1.35;1.25;;;;;;;;;;4983120;28;20435;-70
2022/07/05 09:27:58;;;;;;;2.53;1.42;;;;;;;;;;4983429;28;20034;-70
2022/07/05 09:30:26;;;;;;;;;;;;;;;;;;4982849;28;20042;-70
2022/07/05 09:33:03;;;;;;;3.00;1.33;;;;;;;;;;4982807;28;19921;-70
2022/07/05 09:35:33;;;;;;;3.35;1.13;;;;;;;;;;4983089;28;20145;-70
2022/07/05 09:37:58;;;;;;;3.95;1.30;;;;;;;;;;4982826;28;20046;-70
2022/07/05 09:40:24;;;;;;;1.67;1.13;;;;;;;;;;4982376;28;20169;-70
2022/07/05 09:42:49;;;;;;;3.72;1.20;;;;;;;;;;4982967;28;20601;-70
2022/07/05 09:45:23;;;;;;;2.05;1.30;;;;;;;;;;4982949;28;20085;-72
2022/07/05 09:47:49;;;;;;;6.75;1.50;;;;;;;;;;4982945;28;20034;-70
2022/07/05 09:50:14;;;;;;;2.78;1.00;;;;;;;;;;4981713;28;20293;-70
2022/07/05 09:52:41;;;;;;;3.28;1.20;;;;;;;;;;4982661;28;20042;-70
2022/07/05 09:55:19;;;;;;;4.70;1.20;;;;;;;;;;4982735;28;20685;-70
2022/07/05 09:57:50;;;;;;;1.10;1.00;;;;;;;;;;4982358;28;20047;-70
2022/07/05 10:00:16;;;;;;;;;;;;;;;;;;4981971;28;20031;-71
2022/07/05 10:02:44;;;;;;;1.98;1.00;;;;;;;;;;4980525;28;20385;-71
2022/07/05 10:05:14;;;;;;;2.45;0.85;;;;;;;;;;4981471;28;20038;-70
2022/07/05 10:07:47;;;;;;;1.25;1.00;;;;;;;;;;4981206;28;20031;-70
2022/07/05 10:10:23;;;;;;;2.28;1.00;;;;;;;;;;4981544;28;20049;-69
2022/07/05 10:12:51;;;;;;;11.93;1.20;;;;;;;;;;4980061;28;20204;-70
2022/07/05 10:15:25;;;;;;;5.28;1.20;;;;;;;;;;4981259;28;20030;-70
2022/07/05 10:18:12;;;;;;;3.72;0.90;;;;;;;;;;4981213;28;20515;-69
2022/07/05 10:20:42;;;;;;;1.02;0.85;;;;;;;;;;4980722;28;20038;-69
2022/07/05 10:23:10;;;;;;;3.20;1.00;;;;;;;;;;4980649;28;20042;-72
2022/07/05 10:25:37;;;;;;;3.08;1.20;;;;;;;;;;4980722;28;20546;-70
2022/07/05 10:28:03;;;;;;;2.63;1.10;;;;;;;;;;4981455;28;20026;-70
2022/07/05 10:30:30;;;;;;;2.45;0.93;;;;;;;;;;4980924;28;20088;-71
2022/07/05 10:32:56;;;;;;;1.88;1.20;;;;;;;;;;4981301;28;20069;-70
2022/07/05 10:35:22;;;;;;;2.28;0.90;;;;;;;;;;4980240;28;20026;-70
2022/07/05 10:37:48;;;;;;;1.25;1.02;;;;;;;;;;4980480;28;20039;-70
2022/07/05 10:40:15;;;;;;;2.45;0.85;;;;;;;;;;4980619;28;20623;-70
2022/07/05 10:42:45;;;;;;;1.10;0.90;;;;;;;;;;4981141;28;20049;-70
2022/07/05 10:45:30;;;;;;;3.00;1.17;;;;;;;;;;4980927;28;20042;-70
2022/07/05 10:48:21;;;;;;;2.35;0.98;;;;;;;;;;4980946;28;20487;-70
2022/07/05 10:50:59;;;;;;;4.10;1.15;;;;;;;;;;4980752;28;20109;-70
2022/07/05 10:53:48;;;;;;;4.25;1.23;;;;;;;;;;4981164;28;20378;-69
2022/07/05 10:56:14;;;;;;;3.83;1.00;;;;;;;;;;4979619;28;20038;-70
2022/07/05 10:58:47;;;;;;;1.85;1.05;;;;;;;;;;4979143;28;20054;-69
2022/07/05 11:01:15;;;;;;;4.50;1.50;;;;;;;;;;4979417;28;20042;-69
2022/07/05 11:03:43;;;;;;;2.00;1.20;;;;;;;;;;4980553;28;20129;-70
2022/07/05 11:06:22;;;;;;;2.20;0.98;;;;;;;;;;4979396;28;20038;-70
2022/07/05 11:08:56;;;;;;;1.00;0.95;;;;;;;;;;4979952;28;20035;-70
2022/07/05 11:11:30;;;;;;;1.40;1.13;;;;;;;;;;4980544;28;20030;-70
2022/07/05 11:14:01;;;;;;;2.13;1.20;;;;;;;;;;4982749;28;20038;-70
2022/07/05 11:16:30;;;;;;;4.25;1.17;;;;;;;;;;4983976;28;20149;-70
2022/07/05 11:19:07;;;;;;;2.90;1.40;;;;;;;;;;4983293;28;20042;-70
2022/07/05 11:21:33;;;;;;;1.92;1.10;;;;;;;;;;4984541;28;20875;-71
2022/07/05 11:24:18;;;;;;;4.95;1.20;;;;;;;;;;4984480;28;20038;-70
2022/07/05 11:26:45;;;;;;;2.50;1.20;;;;;;;;;;4985117;28;20034;-70
2022/07/05 11:29:44;;;;;;;1.77;0.90;;;;;;;;;;4984563;28;20026;-71
2022/07/05 11:32:15;;;;;;;1.67;1.00;;;;;;;;;;4985098;28;20075;-71
2022/07/05 11:34:42;;;;;;;1.10;1.00;;;;;;;;;;4985259;28;20038;-71
2022/07/05 11:37:13;;;;;;;4.72;1.00;;;;;;;;;;4983982;28;20137;-69
2022/07/05 11:39:42;;;;;;;2.50;0.90;;;;;;;;;;4985171;28;20550;-69
2022/07/05 11:42:18;;;;;;;1.42;1.00;;;;;;;;;;4984519;28;20037;-70
2022/07/05 11:44:45;;;;;;;1.50;1.30;;;;;;;;;;4985528;28;20034;-72
2022/07/05 11:47:13;;;;;;;11.32;1.00;;;;;;;;;;4987749;28;20398;-69
2022/07/05 11:49:38;;;;;;;11.73;1.33;;;;;;;;;;4987145;28;20097;-69
2022/07/05 11:52:04;;;;;;;1.55;1.00;;;;;;;;;;4985985;28;20733;-69
2022/07/05 11:54:32;;;;;;;1.48;0.88;;;;;;;;;;4986413;28;20038;-69
2022/07/05 11:57:01;;;;;;;1.65;1.00;;;;;;;;;;4987371;28;20038;-71
2022/07/05 11:59:27;;;;;;;3.70;0.95;;;;;;;;;;4985239;28;20034;-70
2022/07/05 12:01:55;;;;;;;1.45;0.90;;;;;;;;;;4986765;28;20057;-69
2022/07/05 12:04:25;;;;;;;0.95;0.85;;;;;;;;;;4986634;28;20054;-69
2022/07/05 12:06:50;;;;;;;2.97;0.93;;;;;;;;;;4986157;28;20948;-70
2022/07/05 12:09:22;;;;;;;2.05;1.05;;;;;;;;;;4986060;28;20049;-70
2022/07/05 12:14:49;;;;;;;1.92;1.00;;;;;;;;;;4984524;28;20069;-70
2022/07/05 12:17:19;;;;;;;1.00;1.00;;;;;;;;;;4982811;28;20153;-70
2022/07/05 12:19:45;;;;;;;1.45;1.25;;;;;;;;;;4984077;28;20038;-70
2022/07/05 12:22:11;;;;;;;2.33;0.80;;;;;;;;;;4983620;28;20038;-70
2022/07/05 12:24:37;;;;;;;3.25;0.80;;;;;;;;;;4982412;28;20447;-70
2022/07/05 12:27:03;;;;;;;2.15;0.90;;;;;;;;;;4984115;28;20030;-69
2022/07/05 12:29:28;;;;;;;1.10;1.00;;;;;;;;;;4982493;28;20399;-69
2022/07/05 12:32:08;;;;;;;1.08;0.85;;;;;;;;;;4983992;28;20042;-70
2022/07/05 12:34:34;;;;;;;2.42;0.90;;;;;;;;;;4983343;28;20046;-70
2022/07/05 12:36:59;;;;;;;1.10;0.90;;;;;;;;;;4985817;28;20058;-70
2022/07/05 12:39:25;;;;;;;2.92;0.90;;;;;;;;;;4983559;28;20416;-69
2022/07/05 12:41:50;;;;;;;1.05;0.90;;;;;;;;;;4984050;28;20145;-69
2022/07/05 12:44:20;;;;;;;2.38;0.90;;;;;;;;;;4983042;28;20034;-70
2022/07/05 12:46:46;;;;;;;3.33;0.90;;;;;;;;;;4983635;28;20049;-70
2022/07/05 12:49:12;;;;;;;1.73;0.90;;;;;;;;;;4984249;28;20038;-70
2022/07/05 12:51:42;;;;;;;1.35;1.00;;;;;;;;;;4985677;28;20172;-69
2022/07/05 13:00:07;;;;;;;2.22;1.00;;;;;;;;;;4984014;28;20046;-69
2022/07/05 13:02:40;;;;;;;4.35;1.13;;;;;;;;;;4983527;28;20045;-68
2022/07/05 13:05:07;;;;;;;1.77;1.00;;;;;;;;;;4987350;28;20046;-70
2022/07/05 13:07:40;;;;;;;3.03;0.85;;;;;;;;;;4982644;28;20391;-70
2022/07/05 13:10:20;;;;;;;4.90;1.25;;;;;;;;;;4983583;28;20050;-70
2022/07/05 13:12:46;;;;;;;0.87;0.80;;;;;;;;;;4983575;28;20096;-68
2022/07/05 13:15:12;;;;;;;1.42;0.82;;;;;;;;;;4983392;28;20100;-69
2022/07/05 13:17:38;;;;;;;5.97;0.80;;;;;;;;;;4982563;28;20499;-69
2022/07/05 13:20:04;;;;;;;3.90;1.10;;;;;;;;;;4983032;28;20049;-69
2022/07/05 13:22:29;;;;;;;1.92;1.10;;;;;;;;;;4983295;28;20038;-69
2022/07/05 13:24:55;;;;;;;1.15;0.90;;;;;;;;;;4983299;28;20040;-71
2022/07/05 13:27:20;;;;;;;3.63;0.90;;;;;;;;;;4981808;28;20266;-71
2022/07/05 13:29:48;;;;;;;1.02;0.90;;;;;;;;;;4982043;28;20053;-69
2022/07/05 13:32:16;;;;;;;3.75;1.15;;;;;;;;;;4983329;28;20038;-69
2022/07/05 13:34:42;;;;;;;2.50;1.15;;;;;;;;;;4982811;28;20046;-71
2022/07/05 13:37:08;;;;;;;1.55;1.35;;;;;;;;;;4983062;28;20026;-69
2022/07/05 13:39:33;;;;;;;2.72;1.20;;;;;;;;;;4981899;28;20566;-69
2022/07/05 13:41:58;;;;;;;2.05;1.00;;;;;;;;;;4983316;28;20108;-69
2022/07/05 13:44:24;;;;;;;2.47;1.17;;;;;;;;;;4982838;28;20045;-71
2022/07/05 13:46:50;;;;;;;1.60;0.82;;;;;;;;;;4981796;28;20080;-71
2022/07/05 13:49:15;;;;;;;1.63;1.20;;;;;;;;;;4982468;28;20041;-70
2022/07/05 13:51:41;;;;;;;1.50;1.00;;;;;;;;;;4981616;28;20033;-71
2022/07/05 13:54:07;;;;;;;4.65;1.10;;;;;;;;;;4982363;28;20458;-71
2022/07/05 13:56:33;;;;;;;3.38;1.10;;;;;;;;;;4982622;28;20058;-72
2022/07/05 13:58:58;;;;;;;1.55;1.02;;;;;;;;;;4982390;28;20081;-70
2022/07/05 14:01:29;;;;;;;2.30;1.00;;;;;;;;;;4982167;28;20057;-70
2022/07/05 14:04:02;;;;;;;3.13;1.00;;;;;;;;;;4982219;28;20053;-70
2022/07/05 14:06:31;;;;;;;6.57;1.42;;;;;;;;;;4981940;28;20096;-70
2022/07/05 14:08:57;;;;;;;1.27;1.10;;;;;;;;;;4982194;28;20395;-70
2022/07/05 14:11:26;;;;;;;1.05;1.02;;;;;;;;;;4981561;28;20414;-70
2022/07/05 14:13:54;;;;;;;2.67;1.25;;;;;;;;;;4981930;28;20092;-71
2022/07/05 14:16:20;;;;;;;4.03;1.00;;;;;;;;;;4982527;28;20042;-71
2022/07/05 14:18:46;;;;;;;3.20;1.00;;;;;;;;;;4981982;28;20046;-71
2022/07/05 14:21:14;;;;;;;2.88;1.27;;;;;;;;;;4982428;28;20072;-71
2022/07/05 14:23:46;;;;;;;5.63;1.15;;;;;;;;;;4981489;28;20042;-71
2022/07/05 14:26:13;;;;;;;2.97;0.93;;;;;;;;;;4982229;28;20050;-70
2022/07/05 14:28:39;;;;;;;1.80;0.77;;;;;;;;;;4982204;28;20061;-70
2022/07/05 14:31:04;;;;;;;2.58;0.93;;;;;;;;;;4982164;28;20073;-70
2022/07/05 14:33:29;;;;;;;2.80;0.98;;;;;;;;;;4979401;28;20045;-72
2022/07/05 14:35:55;;;;;;;4.38;0.95;;;;;;;;;;4984859;28;20392;-70
2022/07/05 14:38:21;;;;;;;1.40;1.15;;;;;;;;;;4983603;28;20554;-69
2022/07/05 14:40:46;;;;;;;5.55;1.20;;;;;;;;;;4980164;28;20101;-69
2022/07/05 14:43:12;;;;;;;2.90;1.25;;;;;;;;;;4981014;28;20046;-70
2022/07/05 14:45:37;;;;;;;2.17;1.25;;;;;;;;;;4979335;28;20034;-70
2022/07/05 14:48:03;;;;;;;8.77;1.33;;;;;;;;;;4980116;28;20121;-69
2022/07/05 14:50:29;;;;;;;4.93;1.40;;;;;;;;;;4979932;28;20034;-69
2022/07/05 14:52:54;;;;;;;3.58;1.20;;;;;;;;;;4980816;28;20066;-70
2022/07/05 14:55:20;;;;;;;3.28;1.00;;;;;;;;;;4978335;28;20044;-69
2022/07/05 14:57:45;;;;;;;0.93;0.88;;;;;;;;;;4976779;28;20035;-70
2022/07/05 15:00:13;;;;;;;1.42;0.98;;;;;;;;;;4979787;28;21009;-70